sensor_id;sensor_type;location;lat;lon;timestamp;pressure;altitude;pressure_sealevel;temperature;humidity
8253;BME280;61313;48.396;10.008;2023-05-29T00:00:52;96180.84;;;17.06;44.63
8253;BME280;61313;48.396;10.008;2023-05-29T00:03:18;96178.44;;;17.03;45.04
8253;BME280;61313;48.396;10.008;2023-05-29T00:05:43;96180.78;;;16.95;45.26
8253;BME280;61313;48.396;10.008;2023-05-29T00:08:09;96174.53;;;16.96;44.97
8253;BME280;61313;48.396;10.008;2023-05-29T00:10:34;96183.59;;;16.81;45.30
8253;BME280;61313;48.396;10.008;2023-05-29T00:13:02;96182.94;;;16.90;45.03
8253;BME280;61313;48.396;10.008;2023-05-29T00:15:27;96176.88;;;16.88;45.50
8253;BME280;61313;48.396;10.008;2023-05-29T00:17:53;96184.00;;;16.75;45.52
8253;BME280;61313;48.396;10.008;2023-05-29T00:20:18;96180.50;;;16.74;45.79
8253;BME280;61313;48.396;10.008;2023-05-29T00:22:44;96181.81;;;16.68;45.64
8253;BME280;61313;48.396;10.008;2023-05-29T00:25:10;96179.38;;;16.65;46.05
8253;BME280;61313;48.396;10.008;2023-05-29T00:27:35;96175.44;;;16.58;46.22
8253;BME280;61313;48.396;10.008;2023-05-29T00:30:02;96176.00;;;16.63;45.97
8253;BME280;61313;48.396;10.008;2023-05-29T00:32:28;96169.63;;;16.53;46.06
8253;BME280;61313;48.396;10.008;2023-05-29T00:34:54;96172.53;;;16.50;46.02
8253;BME280;61313;48.396;10.008;2023-05-29T00:37:20;96170.38;;;16.55;46.50
8253;BME280;61313;48.396;10.008;2023-05-29T00:39:47;96166.34;;;16.62;46.22
8253;BME280;61313;48.396;10.008;2023-05-29T00:42:12;96166.56;;;16.59;46.01
8253;BME280;61313;48.396;10.008;2023-05-29T00:44:38;96177.38;;;16.56;46.06
8253;BME280;61313;48.396;10.008;2023-05-29T00:47:03;96176.34;;;16.46;46.43
8253;BME280;61313;48.396;10.008;2023-05-29T00:49:29;96171.78;;;16.48;46.74
8253;BME280;61313;48.396;10.008;2023-05-29T00:51:55;96169.34;;;16.45;46.41
8253;BME280;61313;48.396;10.008;2023-05-29T00:54:23;96173.81;;;16.44;46.43
8253;BME280;61313;48.396;10.008;2023-05-29T00:56:51;96171.81;;;16.35;46.55
8253;BME280;61313;48.396;10.008;2023-05-29T00:59:17;96168.63;;;16.43;45.98
8253;BME280;61313;48.396;10.008;2023-05-29T01:01:47;96177.06;;;16.48;46.21
8253;BME280;61313;48.396;10.008;2023-05-29T01:04:14;96174.31;;;16.37;46.50
8253;BME280;61313;48.396;10.008;2023-05-29T01:06:40;96174.88;;;16.29;46.63
8253;BME280;61313;48.396;10.008;2023-05-29T01:09:06;96170.09;;;16.34;46.31
8253;BME280;61313;48.396;10.008;2023-05-29T01:12:03;96165.22;;;16.41;46.08
8253;BME280;61313;48.396;10.008;2023-05-29T01:14:38;96176.66;;;16.41;45.69
8253;BME280;61313;48.396;10.008;2023-05-29T01:28:48;96182.63;;;16.19;46.74
8253;BME280;61313;48.396;10.008;2023-05-29T01:31:18;96188.34;;;16.26;46.86
8253;BME280;61313;48.396;10.008;2023-05-29T01:36:19;96180.38;;;16.13;47.36
8253;BME280;61313;48.396;10.008;2023-05-29T01:38:45;96178.06;;;16.08;47.46
8253;BME280;61313;48.396;10.008;2023-05-29T01:41:11;96181.69;;;16.07;47.54
8253;BME280;61313;48.396;10.008;2023-05-29T01:43:37;96182.84;;;16.16;47.13
8253;BME280;61313;48.396;10.008;2023-05-29T01:46:02;96183.91;;;16.14;47.26
8253;BME280;61313;48.396;10.008;2023-05-29T01:48:28;96184.97;;;16.11;47.22
8253;BME280;61313;48.396;10.008;2023-05-29T01:50:54;96188.03;;;16.05;47.34
8253;BME280;61313;48.396;10.008;2023-05-29T01:53:20;96189.41;;;15.98;47.04
8253;BME280;61313;48.396;10.008;2023-05-29T01:55:46;96192.56;;;16.03;46.94
8253;BME280;61313;48.396;10.008;2023-05-29T01:58:12;96185.41;;;15.92;47.58
8253;BME280;61313;48.396;10.008;2023-05-29T02:00:39;96188.75;;;15.81;47.69
8253;BME280;61313;48.396;10.008;2023-05-29T02:03:05;96191.94;;;15.86;47.86
8253;BME280;61313;48.396;10.008;2023-05-29T02:05:30;96189.94;;;15.90;47.53
8253;BME280;61313;48.396;10.008;2023-05-29T02:07:56;96187.06;;;15.93;47.56
8253;BME280;61313;48.396;10.008;2023-05-29T02:10:21;96177.78;;;15.87;47.74
8253;BME280;61313;48.396;10.008;2023-05-29T02:12:47;96185.81;;;15.86;47.90
8253;BME280;61313;48.396;10.008;2023-05-29T02:15:12;96180.28;;;15.89;47.85
8253;BME280;61313;48.396;10.008;2023-05-29T02:17:37;96177.34;;;15.81;48.27
8253;BME280;61313;48.396;10.008;2023-05-29T02:20:03;96185.16;;;15.82;48.05
8253;BME280;61313;48.396;10.008;2023-05-29T02:22:29;96179.34;;;15.77;48.30
8253;BME280;61313;48.396;10.008;2023-05-29T02:24:55;96179.84;;;15.82;48.40
8253;BME280;61313;48.396;10.008;2023-05-29T02:27:20;96177.34;;;15.81;48.32
8253;BME280;61313;48.396;10.008;2023-05-29T02:29:45;96182.41;;;15.71;48.80
8253;BME280;61313;48.396;10.008;2023-05-29T02:32:11;96177.66;;;15.76;48.41
8253;BME280;61313;48.396;10.008;2023-05-29T02:34:37;96185.13;;;15.70;48.28
8253;BME280;61313;48.396;10.008;2023-05-29T02:37:02;96183.16;;;15.73;48.61
8253;BME280;61313;48.396;10.008;2023-05-29T02:39:28;96186.53;;;15.75;48.40
8253;BME280;61313;48.396;10.008;2023-05-29T02:41:53;96184.84;;;15.74;48.47
8253;BME280;61313;48.396;10.008;2023-05-29T02:44:20;96177.88;;;15.73;48.76
8253;BME280;61313;48.396;10.008;2023-05-29T02:46:45;96184.94;;;15.73;48.70
8253;BME280;61313;48.396;10.008;2023-05-29T02:49:11;96170.53;;;15.64;48.77
8253;BME280;61313;48.396;10.008;2023-05-29T02:51:36;96182.47;;;15.57;48.93
8253;BME280;61313;48.396;10.008;2023-05-29T02:54:02;96185.22;;;15.55;49.35
8253;BME280;61313;48.396;10.008;2023-05-29T02:56:28;96184.47;;;15.53;49.58
8253;BME280;61313;48.396;10.008;2023-05-29T02:58:53;96185.13;;;15.57;49.31
8253;BME280;61313;48.396;10.008;2023-05-29T03:01:19;96180.00;;;15.54;49.33
8253;BME280;61313;48.396;10.008;2023-05-29T03:03:44;96185.50;;;15.51;49.54
8253;BME280;61313;48.396;10.008;2023-05-29T03:06:10;96183.16;;;15.46;49.95
8253;BME280;61313;48.396;10.008;2023-05-29T03:08:37;96180.53;;;15.46;49.59
8253;BME280;61313;48.396;10.008;2023-05-29T03:11:08;96184.22;;;15.43;49.85
8253;BME280;61313;48.396;10.008;2023-05-29T03:13:36;96186.72;;;15.32;50.37
8253;BME280;61313;48.396;10.008;2023-05-29T03:16:02;96187.88;;;15.28;50.23
8253;BME280;61313;48.396;10.008;2023-05-29T03:18:27;96185.53;;;15.23;50.60
8253;BME280;61313;48.396;10.008;2023-05-29T03:20:53;96181.97;;;15.24;50.65
8253;BME280;61313;48.396;10.008;2023-05-29T03:23:19;96180.66;;;15.17;50.69
8253;BME280;61313;48.396;10.008;2023-05-29T03:25:44;96180.97;;;15.13;51.08
8253;BME280;61313;48.396;10.008;2023-05-29T03:28:10;96186.47;;;15.10;50.97
8253;BME280;61313;48.396;10.008;2023-05-29T03:30:35;96182.66;;;15.14;51.02
8253;BME280;61313;48.396;10.008;2023-05-29T03:33:01;96182.66;;;15.14;51.31
8253;BME280;61313;48.396;10.008;2023-05-29T03:35:29;96181.28;;;15.08;51.14
8253;BME280;61313;48.396;10.008;2023-05-29T03:37:55;96191.19;;;15.04;51.00
8253;BME280;61313;48.396;10.008;2023-05-29T03:40:20;96184.41;;;15.00;50.74
8253;BME280;61313;48.396;10.008;2023-05-29T03:42:45;96188.13;;;14.98;50.67
8253;BME280;61313;48.396;10.008;2023-05-29T03:45:11;96181.88;;;15.26;50.15
8253;BME280;61313;48.396;10.008;2023-05-29T03:47:36;96181.06;;;15.11;50.01
8253;BME280;61313;48.396;10.008;2023-05-29T03:50:02;96187.25;;;15.24;49.71
8253;BME280;61313;48.396;10.008;2023-05-29T03:52:27;96187.56;;;15.33;49.25
8253;BME280;61313;48.396;10.008;2023-05-29T03:54:53;96189.50;;;15.31;49.70
8253;BME280;61313;48.396;10.008;2023-05-29T03:57:18;96191.19;;;15.32;49.69
8253;BME280;61313;48.396;10.008;2023-05-29T03:59:43;96187.00;;;15.55;49.21
8253;BME280;61313;48.396;10.008;2023-05-29T04:02:09;96182.56;;;15.68;48.96
8253;BME280;61313;48.396;10.008;2023-05-29T04:04:34;96185.28;;;15.54;49.24
8253;BME280;61313;48.396;10.008;2023-05-29T04:07:00;96193.53;;;15.76;48.78
8253;BME280;61313;48.396;10.008;2023-05-29T04:09:25;96195.22;;;16.03;48.41
8253;BME280;61313;48.396;10.008;2023-05-29T04:11:51;96194.69;;;16.23;47.14
8253;BME280;61313;48.396;10.008;2023-05-29T04:14:17;96190.22;;;16.37;47.11
8253;BME280;61313;48.396;10.008;2023-05-29T04:16:42;96196.28;;;16.13;47.49
8253;BME280;61313;48.396;10.008;2023-05-29T04:19:08;96197.97;;;15.88;48.15
8253;BME280;61313;48.396;10.008;2023-05-29T04:21:34;96196.81;;;15.93;48.22
8253;BME280;61313;48.396;10.008;2023-05-29T04:24:00;96202.94;;;16.44;46.95
8253;BME280;61313;48.396;10.008;2023-05-29T04:26:25;96204.63;;;16.45;46.43
8253;BME280;61313;48.396;10.008;2023-05-29T04:28:52;96212.31;;;16.87;45.90
8253;BME280;61313;48.396;10.008;2023-05-29T04:31:25;96213.75;;;16.91;45.91
8253;BME280;61313;48.396;10.008;2023-05-29T04:33:52;96212.25;;;17.00;45.31
8253;BME280;61313;48.396;10.008;2023-05-29T04:36:22;96220.22;;;17.00;45.86
8253;BME280;61313;48.396;10.008;2023-05-29T04:38:50;96215.50;;;17.16;44.81
8253;BME280;61313;48.396;10.008;2023-05-29T04:41:16;96218.75;;;16.96;45.33
8253;BME280;61313;48.396;10.008;2023-05-29T04:43:41;96216.41;;;16.91;45.91
8253;BME280;61313;48.396;10.008;2023-05-29T04:46:07;96224.91;;;16.96;45.61
8253;BME280;61313;48.396;10.008;2023-05-29T04:48:38;96227.59;;;17.07;45.42
8253;BME280;61313;48.396;10.008;2023-05-29T04:51:06;96224.94;;;17.20;44.78
8253;BME280;61313;48.396;10.008;2023-05-29T04:53:31;96225.16;;;17.41;44.63
8253;BME280;61313;48.396;10.008;2023-05-29T04:55:57;96227.84;;;17.52;44.25
8253;BME280;61313;48.396;10.008;2023-05-29T04:58:25;96230.03;;;17.59;44.95
8253;BME280;61313;48.396;10.008;2023-05-29T05:00:51;96233.81;;;17.91;43.28
8253;BME280;61313;48.396;10.008;2023-05-29T05:03:16;96233.50;;;18.18;42.77
8253;BME280;61313;48.396;10.008;2023-05-29T05:05:42;96238.69;;;18.20;43.38
8253;BME280;61313;48.396;10.008;2023-05-29T05:08:09;96239.88;;;18.16;42.84
8253;BME280;61313;48.396;10.008;2023-05-29T05:10:37;96242.75;;;18.02;43.65
8253;BME280;61313;48.396;10.008;2023-05-29T05:13:02;96239.38;;;17.99;43.11
8253;BME280;61313;48.396;10.008;2023-05-29T05:15:28;96245.09;;;18.17;43.37
8253;BME280;61313;48.396;10.008;2023-05-29T05:17:54;96235.28;;;18.07;43.00
8253;BME280;61313;48.396;10.008;2023-05-29T05:20:19;96244.75;;;18.45;42.45
8253;BME280;61313;48.396;10.008;2023-05-29T05:22:44;96255.22;;;18.12;42.86
8253;BME280;61313;48.396;10.008;2023-05-29T05:25:10;96247.56;;;17.96;43.09
8253;BME280;61313;48.396;10.008;2023-05-29T05:27:36;96246.41;;;18.12;43.39
8253;BME280;61313;48.396;10.008;2023-05-29T05:30:03;96253.81;;;18.53;41.79
8253;BME280;61313;48.396;10.008;2023-05-29T05:32:28;96249.69;;;18.27;42.44
8253;BME280;61313;48.396;10.008;2023-05-29T05:34:54;96250.63;;;18.03;42.79
8253;BME280;61313;48.396;10.008;2023-05-29T05:37:20;96248.50;;;17.84;43.61
8253;BME280;61313;48.396;10.008;2023-05-29T05:39:48;96249.81;;;18.25;42.74
8253;BME280;61313;48.396;10.008;2023-05-29T05:42:14;96244.88;;;18.32;42.45
8253;BME280;61313;48.396;10.008;2023-05-29T05:44:40;96252.47;;;18.25;43.02
8253;BME280;61313;48.396;10.008;2023-05-29T05:47:05;96255.00;;;18.27;42.32
8253;BME280;61313;48.396;10.008;2023-05-29T05:49:31;96248.50;;;18.42;42.23
8253;BME280;61313;48.396;10.008;2023-05-29T05:51:56;96252.25;;;18.51;41.96
8253;BME280;61313;48.396;10.008;2023-05-29T05:54:21;96261.03;;;18.17;43.11
8253;BME280;61313;48.396;10.008;2023-05-29T05:56:47;96260.03;;;18.88;41.78
8253;BME280;61313;48.396;10.008;2023-05-29T05:59:12;96258.53;;;19.06;41.66
8253;BME280;61313;48.396;10.008;2023-05-29T06:01:38;96261.81;;;18.87;41.84
8253;BME280;61313;48.396;10.008;2023-05-29T06:04:04;96264.38;;;19.00;41.18
8253;BME280;61313;48.396;10.008;2023-05-29T06:06:29;96263.63;;;18.64;42.12
8253;BME280;61313;48.396;10.008;2023-05-29T06:08:56;96258.81;;;18.11;42.86
8253;BME280;61313;48.396;10.008;2023-05-29T06:11:23;96263.72;;;18.40;43.15
8253;BME280;61313;48.396;10.008;2023-05-29T06:13:50;96259.69;;;18.23;42.53
8253;BME280;61313;48.396;10.008;2023-05-29T06:16:17;96270.97;;;17.91;43.42
8253;BME280;61313;48.396;10.008;2023-05-29T06:18:43;96266.03;;;17.74;43.79
8253;BME280;61313;48.396;10.008;2023-05-29T06:21:09;96263.94;;;18.26;42.82
8253;BME280;61313;48.396;10.008;2023-05-29T06:23:35;96271.91;;;18.14;43.54
8253;BME280;61313;48.396;10.008;2023-05-29T06:26:02;96277.75;;;18.07;43.77
8253;BME280;61313;48.396;10.008;2023-05-29T06:28:28;96274.97;;;18.55;42.71
8253;BME280;61313;48.396;10.008;2023-05-29T06:30:54;96283.44;;;18.71;42.44
8253;BME280;61313;48.396;10.008;2023-05-29T06:33:19;96293.88;;;18.86;42.42
8253;BME280;61313;48.396;10.008;2023-05-29T06:35:46;96292.72;;;18.66;42.68
8253;BME280;61313;48.396;10.008;2023-05-29T06:38:13;96291.94;;;18.76;42.66
8253;BME280;61313;48.396;10.008;2023-05-29T06:40:38;96293.47;;;18.68;42.62
8253;BME280;61313;48.396;10.008;2023-05-29T06:43:04;96303.06;;;19.04;41.80
8253;BME280;61313;48.396;10.008;2023-05-29T06:45:29;96297.22;;;18.65;42.97
8253;BME280;61313;48.396;10.008;2023-05-29T06:47:55;96299.91;;;18.88;42.64
8253;BME280;61313;48.396;10.008;2023-05-29T06:50:20;96297.59;;;19.17;42.41
8253;BME280;61313;48.396;10.008;2023-05-29T06:52:46;96300.25;;;19.17;42.56
8253;BME280;61313;48.396;10.008;2023-05-29T06:55:11;96299.09;;;19.53;41.58
8253;BME280;61313;48.396;10.008;2023-05-29T06:57:37;96303.59;;;19.41;41.95
8253;BME280;61313;48.396;10.008;2023-05-29T07:00:06;96313.59;;;19.72;41.22
8253;BME280;61313;48.396;10.008;2023-05-29T07:02:33;96298.53;;;19.38;42.21
8253;BME280;61313;48.396;10.008;2023-05-29T07:04:58;96307.69;;;19.68;41.68
8253;BME280;61313;48.396;10.008;2023-05-29T07:07:23;96297.09;;;20.52;39.96
8253;BME280;61313;48.396;10.008;2023-05-29T07:09:49;96299.84;;;20.62;39.76
8253;BME280;61313;48.396;10.008;2023-05-29T07:12:14;96304.56;;;19.95;40.99
8253;BME280;61313;48.396;10.008;2023-05-29T07:14:40;96309.28;;;19.37;42.74
8253;BME280;61313;48.396;10.008;2023-05-29T07:17:05;96317.91;;;19.84;42.57
8253;BME280;61313;48.396;10.008;2023-05-29T07:19:31;96315.63;;;19.79;42.12
8253;BME280;61313;48.396;10.008;2023-05-29T07:21:59;96317.50;;;19.45;43.36
8253;BME280;61313;48.396;10.008;2023-05-29T07:24:24;96317.31;;;18.92;44.82
8253;BME280;61313;48.396;10.008;2023-05-29T07:26:50;96314.22;;;19.41;43.89
8253;BME280;61313;48.396;10.008;2023-05-29T07:29:16;96317.09;;;19.72;43.07
8253;BME280;61313;48.396;10.008;2023-05-29T07:31:43;96307.19;;;20.06;42.31
8253;BME280;61313;48.396;10.008;2023-05-29T07:34:09;96301.28;;;20.66;41.30
8253;BME280;61313;48.396;10.008;2023-05-29T07:36:35;96306.16;;;20.40;41.26
8253;BME280;61313;48.396;10.008;2023-05-29T07:39:01;96311.75;;;19.83;42.96
8253;BME280;61313;48.396;10.008;2023-05-29T07:41:27;96314.91;;;19.66;43.43
8253;BME280;61313;48.396;10.008;2023-05-29T07:43:52;96300.06;;;19.96;43.05
8253;BME280;61313;48.396;10.008;2023-05-29T07:46:18;96304.63;;;20.05;42.76
8253;BME280;61313;48.396;10.008;2023-05-29T07:48:44;96298.53;;;20.14;42.33
8253;BME280;61313;48.396;10.008;2023-05-29T07:51:11;96295.91;;;21.87;45.23
8253;BME280;61313;48.396;10.008;2023-05-29T07:53:37;96295.34;;;21.64;41.90
8253;BME280;61313;48.396;10.008;2023-05-29T07:56:02;96308.25;;;21.19;40.65
8253;BME280;61313;48.396;10.008;2023-05-29T07:58:28;96307.59;;;21.26;41.17
8253;BME280;61313;48.396;10.008;2023-05-29T08:00:53;96305.78;;;21.36;40.99
8253;BME280;61313;48.396;10.008;2023-05-29T08:03:18;96310.09;;;21.68;39.56
8253;BME280;61313;48.396;10.008;2023-05-29T08:05:44;96308.56;;;21.25;39.99
8253;BME280;61313;48.396;10.008;2023-05-29T08:08:10;96303.47;;;21.12;39.73
8253;BME280;61313;48.396;10.008;2023-05-29T08:10:38;96308.53;;;20.43;41.26
8253;BME280;61313;48.396;10.008;2023-05-29T08:13:04;96311.47;;;21.12;40.58
8253;BME280;61313;48.396;10.008;2023-05-29T08:15:29;96302.66;;;21.22;40.73
8253;BME280;61313;48.396;10.008;2023-05-29T08:17:56;96309.56;;;21.74;39.54
8253;BME280;61313;48.396;10.008;2023-05-29T08:20:21;96304.88;;;21.47;39.30
8253;BME280;61313;48.396;10.008;2023-05-29T08:22:47;96314.19;;;20.91;40.25
8253;BME280;61313;48.396;10.008;2023-05-29T08:25:12;96314.00;;;21.14;40.17
8253;BME280;61313;48.396;10.008;2023-05-29T08:27:38;96305.91;;;21.35;40.28
8253;BME280;61313;48.396;10.008;2023-05-29T08:30:03;96312.78;;;21.28;39.82
8253;BME280;61313;48.396;10.008;2023-05-29T08:32:29;96305.13;;;21.44;40.12
8253;BME280;61313;48.396;10.008;2023-05-29T08:34:54;96316.56;;;21.25;40.02
8253;BME280;61313;48.396;10.008;2023-05-29T08:37:20;96321.22;;;21.33;40.41
8253;BME280;61313;48.396;10.008;2023-05-29T08:39:45;96308.84;;;21.63;39.72
8253;BME280;61313;48.396;10.008;2023-05-29T08:44:47;96317.31;;;21.97;38.46
8253;BME280;61313;48.396;10.008;2023-05-29T08:47:17;96308.19;;;21.99;37.79
8253;BME280;61313;48.396;10.008;2023-05-29T08:49:51;96310.97;;;21.69;38.59
8253;BME280;61313;48.396;10.008;2023-05-29T08:52:24;96308.00;;;21.82;38.72
8253;BME280;61313;48.396;10.008;2023-05-29T08:54:53;96302.84;;;21.90;38.27
8253;BME280;61313;48.396;10.008;2023-05-29T08:57:20;96303.75;;;22.67;36.75
8253;BME280;61313;48.396;10.008;2023-05-29T08:59:46;96294.03;;;22.75;36.30
8253;BME280;61313;48.396;10.008;2023-05-29T09:02:14;96302.03;;;22.85;36.38
8253;BME280;61313;48.396;10.008;2023-05-29T09:04:41;96304.38;;;22.41;38.23
8253;BME280;61313;48.396;10.008;2023-05-29T09:07:11;96294.75;;;22.58;37.30
8253;BME280;61313;48.396;10.008;2023-05-29T09:09:36;96305.22;;;22.12;37.03
8253;BME280;61313;48.396;10.008;2023-05-29T09:12:03;96302.00;;;22.28;36.58
8253;BME280;61313;48.396;10.008;2023-05-29T09:14:40;96300.06;;;22.21;35.76
8253;BME280;61313;48.396;10.008;2023-05-29T09:17:06;96304.50;;;22.10;35.92
8253;BME280;61313;48.396;10.008;2023-05-29T09:19:33;96301.22;;;22.65;35.33
8253;BME280;61313;48.396;10.008;2023-05-29T09:22:00;96300.16;;;22.38;35.24
8253;BME280;61313;48.396;10.008;2023-05-29T09:24:27;96300.72;;;21.84;35.81
8253;BME280;61313;48.396;10.008;2023-05-29T09:26:53;96310.84;;;22.09;35.24
8253;BME280;61313;48.396;10.008;2023-05-29T09:29:19;96308.03;;;22.40;35.21
8253;BME280;61313;48.396;10.008;2023-05-29T09:31:48;96314.25;;;22.31;32.78
8253;BME280;61313;48.396;10.008;2023-05-29T09:34:14;96311.41;;;22.23;33.22
8253;BME280;61313;48.396;10.008;2023-05-29T09:36:40;96313.41;;;22.21;33.49
8253;BME280;61313;48.396;10.008;2023-05-29T09:39:06;96304.63;;;22.57;33.17
8253;BME280;61313;48.396;10.008;2023-05-29T09:41:41;96302.75;;;22.68;32.14
8253;BME280;61313;48.396;10.008;2023-05-29T09:44:06;96305.03;;;22.62;32.75
8253;BME280;61313;48.396;10.008;2023-05-29T09:46:35;96313.56;;;22.86;32.50
8253;BME280;61313;48.396;10.008;2023-05-29T09:49:09;96312.19;;;22.72;30.84
8253;BME280;61313;48.396;10.008;2023-05-29T09:51:36;96312.50;;;22.69;31.15
8253;BME280;61313;48.396;10.008;2023-05-29T09:54:13;96324.22;;;22.38;32.15
8253;BME280;61313;48.396;10.008;2023-05-29T09:56:41;96314.66;;;22.26;33.02
8253;BME280;61313;48.396;10.008;2023-05-29T09:59:10;96329.56;;;22.48;32.52
8253;BME280;61313;48.396;10.008;2023-05-29T10:01:41;96324.34;;;22.56;32.95
8253;BME280;61313;48.396;10.008;2023-05-29T10:04:08;96321.16;;;23.00;32.53
8253;BME280;61313;48.396;10.008;2023-05-29T10:06:38;96321.50;;;22.77;32.85
8253;BME280;61313;48.396;10.008;2023-05-29T10:09:06;96320.72;;;22.38;32.88
8253;BME280;61313;48.396;10.008;2023-05-29T10:11:35;96315.91;;;22.41;33.09
8253;BME280;61313;48.396;10.008;2023-05-29T10:14:03;96320.34;;;22.80;33.04
8253;BME280;61313;48.396;10.008;2023-05-29T10:16:32;96303.19;;;22.73;32.52
8253;BME280;61313;48.396;10.008;2023-05-29T10:19:01;96308.94;;;23.25;31.96
8253;BME280;61313;48.396;10.008;2023-05-29T10:21:32;96313.84;;;23.02;32.55
8253;BME280;61313;48.396;10.008;2023-05-29T10:24:04;96307.47;;;23.03;32.91
8253;BME280;61313;48.396;10.008;2023-05-29T10:26:34;96306.97;;;22.80;33.24
8253;BME280;61313;48.396;10.008;2023-05-29T10:34:33;96295.22;;;23.00;33.04
8253;BME280;61313;48.396;10.008;2023-05-29T10:37:09;96298.53;;;22.85;32.58
8253;BME280;61313;48.396;10.008;2023-05-29T10:39:37;96299.09;;;22.78;33.03
8253;BME280;61313;48.396;10.008;2023-05-29T10:47:55;96308.75;;;22.42;33.44
8253;BME280;61313;48.396;10.008;2023-05-29T10:53:15;96290.75;;;23.01;32.09
8253;BME280;61313;48.396;10.008;2023-05-29T10:55:41;96300.31;;;23.03;31.26
8253;BME280;61313;48.396;10.008;2023-05-29T10:58:33;96298.22;;;22.31;32.22
8253;BME280;61313;48.396;10.008;2023-05-29T11:00:59;96304.97;;;22.35;32.09
8253;BME280;61313;48.396;10.008;2023-05-29T11:03:34;96299.72;;;22.43;31.56
8253;BME280;61313;48.396;10.008;2023-05-29T11:06:04;96294.06;;;22.66;30.38
8253;BME280;61313;48.396;10.008;2023-05-29T11:08:54;96286.69;;;22.87;29.86
8253;BME280;61313;48.396;10.008;2023-05-29T11:11:33;96292.69;;;23.09;28.83
8253;BME280;61313;48.396;10.008;2023-05-29T11:14:03;96294.66;;;23.07;27.59
8253;BME280;61313;48.396;10.008;2023-05-29T11:18:55;96291.78;;;23.45;27.91
8253;BME280;61313;48.396;10.008;2023-05-29T11:21:22;96295.97;;;23.30;28.11
8253;BME280;61313;48.396;10.008;2023-05-29T11:23:52;96291.09;;;23.16;27.62
8253;BME280;61313;48.396;10.008;2023-05-29T11:26:19;96294.41;;;23.28;28.31
8253;BME280;61313;48.396;10.008;2023-05-29T11:28:45;96291.84;;;23.08;28.25
8253;BME280;61313;48.396;10.008;2023-05-29T11:31:12;96290.09;;;23.17;27.82
8253;BME280;61313;48.396;10.008;2023-05-29T11:33:47;96280.97;;;23.37;27.60
8253;BME280;61313;48.396;10.008;2023-05-29T11:36:14;96289.38;;;23.24;26.60
8253;BME280;61313;48.396;10.008;2023-05-29T11:38:40;96284.47;;;23.10;26.70
8253;BME280;61313;48.396;10.008;2023-05-29T11:41:05;96277.34;;;22.91;26.80
8253;BME280;61313;48.396;10.008;2023-05-29T11:43:31;96289.50;;;23.23;27.08
8253;BME280;61313;48.396;10.008;2023-05-29T11:45:56;96283.94;;;23.07;26.33
8253;BME280;61313;48.396;10.008;2023-05-29T11:48:22;96286.31;;;23.10;27.16
8253;BME280;61313;48.396;10.008;2023-05-29T11:50:53;96279.75;;;23.32;27.10
8253;BME280;61313;48.396;10.008;2023-05-29T11:53:18;96286.38;;;23.00;26.88
8253;BME280;61313;48.396;10.008;2023-05-29T11:55:44;96283.16;;;22.77;26.48
8253;BME280;61313;48.396;10.008;2023-05-29T11:58:09;96290.69;;;22.64;26.68
8253;BME280;61313;48.396;10.008;2023-05-29T12:00:37;96274.00;;;22.79;27.36
8253;BME280;61313;48.396;10.008;2023-05-29T12:03:05;96276.31;;;23.12;27.73
8253;BME280;61313;48.396;10.008;2023-05-29T12:05:31;96289.63;;;22.94;26.97
8253;BME280;61313;48.396;10.008;2023-05-29T12:07:57;96287.63;;;23.06;26.83
8253;BME280;61313;48.396;10.008;2023-05-29T12:10:26;96295.78;;;23.04;25.69
8253;BME280;61313;48.396;10.008;2023-05-29T12:12:58;96290.00;;;23.09;25.02
8253;BME280;61313;48.396;10.008;2023-05-29T12:15:24;96287.84;;;23.12;25.22
8253;BME280;61313;48.396;10.008;2023-05-29T12:17:50;96279.19;;;23.00;25.65
8253;BME280;61313;48.396;10.008;2023-05-29T12:20:17;96283.31;;;22.85;25.61
8253;BME280;61313;48.396;10.008;2023-05-29T12:22:44;96289.00;;;23.10;25.06
8253;BME280;61313;48.396;10.008;2023-05-29T12:25:11;96288.88;;;23.39;24.88
8253;BME280;61313;48.396;10.008;2023-05-29T12:27:38;96286.16;;;22.74;24.53
8253;BME280;61313;48.396;10.008;2023-05-29T12:30:14;96283.63;;;22.62;24.98
8253;BME280;61313;48.396;10.008;2023-05-29T12:32:47;96279.06;;;22.92;24.37
8253;BME280;61313;48.396;10.008;2023-05-29T12:35:15;96287.59;;;23.15;25.29
8253;BME280;61313;48.396;10.008;2023-05-29T12:37:45;96286.91;;;23.31;25.76
8253;BME280;61313;48.396;10.008;2023-05-29T12:40:16;96284.59;;;23.18;25.64
8253;BME280;61313;48.396;10.008;2023-05-29T12:42:42;96282.94;;;23.17;25.75
8253;BME280;61313;48.396;10.008;2023-05-29T12:45:08;96284.59;;;23.18;26.19
8253;BME280;61313;48.396;10.008;2023-05-29T12:47:35;96273.88;;;23.46;25.09
8253;BME280;61313;48.396;10.008;2023-05-29T12:50:27;96283.19;;;23.14;25.78
8253;BME280;61313;48.396;10.008;2023-05-29T12:53:01;96281.72;;;23.30;24.64
8253;BME280;61313;48.396;10.008;2023-05-29T12:55:28;96282.19;;;23.43;24.93
8253;BME280;61313;48.396;10.008;2023-05-29T12:57:54;96273.50;;;23.59;25.13
8253;BME280;61313;48.396;10.008;2023-05-29T13:00:21;96292.25;;;23.59;24.41
8253;BME280;61313;48.396;10.008;2023-05-29T13:02:47;96281.50;;;23.41;23.65
8253;BME280;61313;48.396;10.008;2023-05-29T13:05:14;96282.38;;;23.41;24.81
8253;BME280;61313;48.396;10.008;2023-05-29T13:07:41;96285.00;;;23.69;25.61
8253;BME280;61313;48.396;10.008;2023-05-29T13:10:07;96273.03;;;23.91;25.56
8253;BME280;61313;48.396;10.008;2023-05-29T13:12:34;96268.84;;;23.88;24.53
8253;BME280;61313;48.396;10.008;2023-05-29T13:15:00;96270.50;;;23.90;24.55
8253;BME280;61313;48.396;10.008;2023-05-29T13:17:25;96270.03;;;23.76;24.62
8253;BME280;61313;48.396;10.008;2023-05-29T13:19:50;96267.81;;;23.90;24.27
8253;BME280;61313;48.396;10.008;2023-05-29T13:22:16;96277.03;;;24.05;24.51
8253;BME280;61313;48.396;10.008;2023-05-29T13:24:41;96276.94;;;23.97;24.36
8253;BME280;61313;48.396;10.008;2023-05-29T13:27:07;96274.13;;;23.98;24.74
8253;BME280;61313;48.396;10.008;2023-05-29T13:29:33;96270.28;;;24.01;23.93
8253;BME280;61313;48.396;10.008;2023-05-29T13:31:58;96277.34;;;23.56;24.29